createdAt,value
2023-03-22T00:05:02.800Z,10.07
2023-03-22T00:12:36.756Z,10.25
2023-03-22T00:20:13.616Z,10.05
2023-03-22T00:27:47.384Z,9.52
2023-03-22T00:35:22.651Z,9.88
2023-03-22T00:42:57.026Z,9.73
2023-03-22T00:50:32.327Z,9.30
2023-03-22T00:58:06.187Z,10.20
2023-03-22T01:05:41.432Z,9.27
2023-03-22T01:13:17.812Z,8.57
2023-03-22T01:20:53.668Z,9.75
2023-03-22T01:28:27.930Z,11.23
2023-03-22T01:36:03.374Z,11.87
2023-03-22T01:43:38.252Z,13.32
2023-03-22T01:58:50.298Z,10.63
2023-03-22T02:06:26.904Z,9.90
2023-03-22T02:14:14.459Z,11.40
2023-03-22T02:22:17.679Z,10.20
2023-03-22T02:30:02.016Z,11.15
2023-03-22T02:38:08.064Z,11.30
2023-03-22T02:53:43.150Z,11.07
2023-03-22T03:01:23.813Z,11.27
2023-03-22T03:09:02.657Z,10.45
2023-03-22T03:16:38.019Z,10.48
2023-03-22T03:24:23.062Z,11.60
2023-03-22T03:32:06.572Z,11.40
2023-03-22T03:39:47.828Z,11.35
2023-03-22T03:47:24.488Z,12.30
2023-03-22T03:54:58.572Z,11.20
2023-03-22T04:02:34.157Z,10.17
2023-03-22T04:10:09.371Z,10.80
2023-03-22T04:17:44.737Z,11.15
2023-03-22T04:25:19.043Z,11.35
2023-03-22T04:32:54.348Z,11.17
2023-03-22T04:40:31.685Z,12.00
2023-03-22T04:48:07.891Z,12.13
2023-03-22T04:55:41.928Z,10.95
2023-03-22T05:03:19.433Z,11.27
2023-03-22T05:10:53.763Z,11.07
2023-03-22T05:18:29.535Z,11.97
2023-03-22T05:26:04.436Z,11.05
2023-03-22T05:33:39.915Z,11.25
2023-03-22T05:41:14.875Z,11.60
2023-03-22T05:48:50.274Z,11.27
2023-03-22T05:56:25.995Z,13.20
2023-03-22T06:04:01.584Z,12.93
2023-03-22T06:11:35.660Z,11.50
2023-03-22T06:19:11.253Z,12.23
2023-03-22T06:26:45.288Z,10.27
2023-03-22T06:34:20.556Z,13.43
2023-03-22T06:41:55.182Z,14.10
2023-03-22T06:49:31.666Z,12.10
2023-03-22T06:57:05.591Z,11.95
2023-03-22T07:04:41.310Z,13.07
2023-03-22T07:12:15.611Z,13.25
2023-03-22T07:19:53.424Z,13.25
2023-03-22T07:27:27.407Z,13.23
2023-03-22T07:35:02.856Z,13.13
2023-03-22T07:42:37.141Z,14.95
2023-03-22T07:50:13.958Z,13.63
2023-03-22T07:57:47.959Z,13.30
2023-03-22T08:05:23.678Z,14.33
2023-03-22T08:12:57.844Z,11.52
2023-03-22T08:20:34.289Z,11.83
2023-03-22T08:28:08.243Z,13.25
2023-03-22T08:35:46.665Z,12.30
2023-03-22T08:43:20.593Z,12.02
2023-03-22T08:50:56.287Z,11.02
2023-03-22T08:58:30.358Z,10.88
2023-03-22T09:06:06.888Z,9.70
2023-03-22T09:13:41.630Z,9.90
2023-03-22T09:21:17.238Z,10.50
2023-03-22T09:28:52.155Z,9.88
2023-03-22T09:44:06.575Z,7.20
2023-03-22T09:51:44.554Z,7.75
2023-03-22T09:59:27.301Z,7.35
2023-03-22T10:07:11.853Z,7.60
2023-03-22T10:14:52.184Z,7.20
2023-03-22T10:22:30.962Z,7.28
2023-03-22T10:30:09.925Z,6.18
2023-03-22T10:37:49.171Z,6.47
2023-03-22T10:45:25.359Z,5.80
2023-03-22T10:53:06.069Z,5.43
2023-03-22T11:00:44.579Z,5.50
2023-03-22T11:08:19.959Z,5.93
2023-03-22T11:15:59.789Z,4.88
2023-03-22T11:23:38.566Z,4.40
2023-03-22T11:31:15.154Z,4.20
2023-03-22T11:38:59.166Z,3.53
2023-03-22T11:46:34.707Z,4.85
2023-03-22T11:54:16.048Z,4.82
2023-03-22T12:01:53.751Z,4.50
2023-03-22T12:09:39.349Z,4.43
2023-03-22T12:17:17.889Z,4.45
2023-03-22T12:24:53.341Z,4.45
2023-03-22T12:32:29.907Z,5.00
2023-03-22T12:40:10.190Z,3.47
2023-03-22T12:47:48.034Z,2.97
2023-03-22T12:55:27.327Z,2.75
2023-03-22T13:03:09.290Z,2.05
2023-03-22T13:11:03.922Z,2.67
2023-03-22T13:18:59.540Z,1.95
2023-03-22T13:26:40.862Z,2.20
2023-03-22T13:34:18.504Z,2.22
2023-03-22T13:42:07.877Z,2.05
2023-03-22T13:49:50.621Z,2.42
2023-03-22T13:57:48.051Z,2.17
2023-03-22T14:05:24.549Z,2.40
2023-03-22T14:13:05.052Z,1.63
2023-03-22T14:20:40.881Z,1.92
